Time;durP1;ratioP1;P1;durP2;ratioP2;P2;SDS_P1;SDS_P2;PMS_P1;PMS_P2;Temp;Humidity;BMP_temperature;BMP_pressure;BME280_temperature;BME280_humidity;BME280_pressure;Samples;Min_cycle;Max_cycle;Signal;HPM_P1;HPM_P2
2023/07/25 00:02:18;;;;;;;11.00;5.28;;;19.50;82.70;;;;;;6156608;23;20018;-94
2023/07/25 00:04:45;;;;;;;11.70;5.95;;;19.60;82.70;;;;;;6156730;23;20432;-95
2023/07/25 00:07:13;;;;;;;11.68;5.10;;;19.60;82.70;;;;;;6156642;23;20018;-95
2023/07/25 00:09:40;;;;;;;12.27;5.05;;;19.60;82.30;;;;;;6156382;23;21568;-96
2023/07/25 00:12:07;;;;;;;12.77;5.10;;;19.60;82.40;;;;;;6155542;23;20096;-94
2023/07/25 00:14:35;;;;;;;11.82;5.50;;;19.60;82.50;;;;;;6155383;23;20100;-95
2023/07/25 00:17:06;;;;;;;11.88;5.57;;;19.50;82.60;;;;;;6181347;23;20021;-95
2023/07/25 00:19:33;;;;;;;11.10;4.93;;;19.50;82.80;;;;;;6160530;23;20017;-94
2023/07/25 00:22:00;;;;;;;12.90;6.00;;;19.50;82.70;;;;;;6162021;23;20321;-94
2023/07/25 00:24:27;;;;;;;12.23;5.67;;;19.50;82.60;;;;;;6161676;23;20044;-95
2023/07/25 00:26:55;;;;;;;12.10;5.82;;;19.60;82.50;;;;;;6161464;23;20447;-94
2023/07/25 00:29:22;;;;;;;11.10;4.85;;;19.60;82.40;;;;;;6186007;23;20021;-94
2023/07/25 00:31:49;;;;;;;11.88;5.75;;;19.50;82.60;;;;;;6185764;23;20463;-94
2023/07/25 00:34:16;;;;;;;13.63;6.22;;;19.50;82.60;;;;;;6161262;23;20013;-94
2023/07/25 00:36:43;;;;;;;12.13;5.80;;;19.50;82.60;;;;;;6161484;23;20041;-95
2023/07/25 00:39:11;;;;;;;14.95;5.50;;;19.50;82.60;;;;;;6161138;23;20021;-94
2023/07/25 00:41:38;;;;;;;12.48;5.60;;;19.60;82.60;;;;;;6162709;23;20435;-95
2023/07/25 00:44:05;;;;;;;13.38;5.75;;;19.60;82.50;;;;;;6162839;23;20049;-94
2023/07/25 00:46:32;;;;;;;12.98;5.78;;;19.50;82.50;;;;;;6163592;23;20451;-94
2023/07/25 00:49:01;;;;;;;11.67;5.20;;;19.50;82.60;;;;;;6163124;23;20375;-95
2023/07/25 00:51:28;;;;;;;11.40;5.10;;;19.40;82.80;;;;;;6163117;23;20025;-96
2023/07/25 00:53:56;;;;;;;12.00;6.00;;;19.40;82.80;;;;;;6188881;23;20017;-96
2023/07/25 00:56:24;;;;;;;12.23;4.93;;;19.40;82.80;;;;;;6162767;23;20017;-96
2023/07/25 00:58:51;;;;;;;11.27;5.35;;;19.50;82.40;;;;;;6163231;23;20017;-95
2023/07/25 01:01:18;;;;;;;16.23;6.20;;;19.50;82.30;;;;;;6162857;23;20103;-94
2023/07/25 01:03:45;;;;;;;17.80;6.53;;;19.40;82.70;;;;;;6163235;23;20020;-95
2023/07/25 01:06:14;;;;;;;14.32;6.05;;;19.30;83.30;;;;;;6162911;23;20052;-95
2023/07/25 01:08:53;;;;;;;16.17;6.10;;;19.10;83.70;;;;;;6187583;23;20024;-96
2023/07/25 01:11:22;;;;;;;12.55;5.93;;;19.10;83.80;;;;;;6162973;23;20020;-95
2023/07/25 01:13:50;;;;;;;12.13;5.37;;;19.10;83.80;;;;;;6163263;23;20017;-96
2023/07/25 01:16:22;;;;;;;13.57;6.45;;;19.10;83.70;;;;;;6157770;23;20017;-95
2023/07/25 01:18:51;;;;;;;13.18;5.85;;;19.10;83.50;;;;;;6133594;23;20021;-95
2023/07/25 01:21:21;;;;;;;11.45;5.32;;;19.10;83.70;;;;;;6133274;23;20060;-94
2023/07/25 01:23:49;;;;;;;11.93;5.20;;;19.00;84.00;;;;;;6133179;23;20025;-96
2023/07/25 01:26:17;;;;;;;13.20;5.50;;;19.00;84.10;;;;;;6133189;23;20025;-95
2023/07/25 01:28:44;;;;;;;12.63;5.25;;;19.10;84.00;;;;;;6132975;23;20026;-95
2023/07/25 01:31:11;;;;;;;11.43;5.60;;;19.10;83.90;;;;;;6157594;23;20112;-95
2023/07/25 01:33:39;;;;;;;11.35;4.95;;;19.10;83.90;;;;;;6133076;23;20018;-94
2023/07/25 01:36:07;;;;;;;12.43;6.07;;;19.10;83.60;;;;;;6133099;23;20108;-94
2023/07/25 01:38:34;;;;;;;15.67;5.43;;;19.10;83.80;;;;;;6133354;23;20018;-95
2023/07/25 01:41:01;;;;;;;11.73;5.65;;;19.10;84.00;;;;;;6133566;23;20017;-95
2023/07/25 01:43:28;;;;;;;12.32;5.78;;;19.10;84.10;;;;;;6133264;23;20419;-95
2023/07/25 01:45:55;;;;;;;12.05;5.60;;;19.10;84.00;;;;;;6133380;23;20459;-95
2023/07/25 01:48:23;;;;;;;14.68;5.65;;;19.10;83.80;;;;;;6133265;23;20025;-95
2023/07/25 01:50:50;;;;;;;12.03;5.43;;;19.20;83.60;;;;;;6133411;23;20444;-96
2023/07/25 01:53:17;;;;;;;11.20;5.05;;;19.10;83.60;;;;;;6157316;23;20432;-96
2023/07/25 01:55:44;;;;;;;11.68;5.30;;;19.20;83.50;;;;;;6133561;23;20101;-95
2023/07/25 01:58:11;;;;;;;12.48;5.28;;;19.10;83.60;;;;;;6133406;23;20048;-96
2023/07/25 02:00:39;;;;;;;15.63;6.07;;;19.10;83.70;;;;;;6133453;23;20444;-95
2023/07/25 02:03:08;;;;;;;14.93;6.50;;;19.10;83.80;;;;;;6157194;23;20081;-95
2023/07/25 02:05:36;;;;;;;12.02;5.28;;;19.10;83.90;;;;;;6132696;23;20112;-96
2023/07/25 02:08:03;;;;;;;12.07;5.60;;;19.10;84.10;;;;;;6157074;23;20080;-96
2023/07/25 02:10:32;;;;;;;12.45;5.68;;;19.10;83.90;;;;;;6133070;23;20452;-96
2023/07/25 02:12:59;;;;;;;12.13;5.45;;;19.10;83.70;;;;;;6157707;23;20022;-96
2023/07/25 02:15:26;;;;;;;11.03;5.70;;;19.10;83.60;;;;;;6139857;23;20021;-96
2023/07/25 02:17:54;;;;;;;11.20;5.68;;;19.10;83.40;;;;;;6162312;23;20443;-96
2023/07/25 02:20:25;;;;;;;10.32;5.07;;;19.10;83.50;;;;;;6162216;23;20037;-96
2023/07/25 02:22:53;;;;;;;12.30;5.38;;;19.10;83.50;;;;;;6162516;23;20017;-95
2023/07/25 02:25:21;;;;;;;11.90;5.72;;;19.10;83.50;;;;;;6163106;23;20020;-95
2023/07/25 02:27:49;;;;;;;9.97;5.00;;;19.10;83.70;;;;;;6187045;23;20017;-96
2023/07/25 02:30:16;;;;;;;12.80;5.45;;;19.10;83.70;;;;;;6162314;23;20017;-96
2023/07/25 02:32:43;;;;;;;12.25;6.07;;;19.10;83.40;;;;;;6186718;23;20071;-96
2023/07/25 02:35:10;;;;;;;10.80;4.90;;;19.20;83.30;;;;;;6161965;23;20025;-96
2023/07/25 02:37:37;;;;;;;10.23;4.75;;;19.10;83.40;;;;;;6162024;23;20071;-95
2023/07/25 02:40:05;;;;;;;12.23;5.10;;;19.20;83.20;;;;;;6161691;23;20013;-95
2023/07/25 02:42:33;;;;;;;10.50;4.72;;;19.20;83.00;;;;;;6162022;23;20013;-95
2023/07/25 02:45:00;;;;;;;11.68;5.78;;;19.30;82.90;;;;;;6161800;23;20025;-96
2023/07/25 02:47:28;;;;;;;11.43;5.22;;;19.30;82.80;;;;;;6163110;23;20021;-94
2023/07/25 02:49:55;;;;;;;12.02;5.60;;;19.30;82.80;;;;;;6161871;23;20028;-94
2023/07/25 02:52:24;;;;;;;12.47;5.27;;;19.20;82.80;;;;;;6162057;23;20020;-93
2023/07/25 02:54:54;;;;;;;11.88;5.35;;;19.20;83.10;;;;;;6186673;23;20023;-94
2023/07/25 02:57:26;;;;;;;11.95;5.65;;;19.20;83.10;;;;;;6161917;23;20017;-94
2023/07/25 02:59:53;;;;;;;11.80;5.40;;;19.10;83.30;;;;;;6162184;23;20017;-94
2023/07/25 03:02:20;;;;;;;12.00;5.80;;;19.10;83.60;;;;;;6161189;23;20017;-93
2023/07/25 03:04:47;;;;;;;13.43;6.40;;;19.00;83.80;;;;;;6161222;23;20025;-94
2023/07/25 03:07:15;;;;;;;11.82;6.20;;;19.10;83.70;;;;;;6161433;23;20017;-94
2023/07/25 03:09:43;;;;;;;14.85;7.32;;;19.00;83.70;;;;;;6161935;23;20367;-94
2023/07/25 03:12:19;;;;;;;15.13;7.15;;;19.00;83.80;;;;;;6162847;23;20021;-93
2023/07/25 03:14:49;;;;;;;13.20;6.53;;;19.10;83.40;;;;;;6162043;23;20013;-93
2023/07/25 03:17:16;;;;;;;18.07;7.40;;;19.10;83.20;;;;;;6155916;23;20057;-94
2023/07/25 03:19:43;;;;;;;15.18;7.32;;;19.10;83.00;;;;;;6180951;23;20021;-93
2023/07/25 03:22:10;;;;;;;15.02;7.35;;;19.20;82.80;;;;;;6156060;23;20017;-94
2023/07/25 03:24:37;;;;;;;12.68;5.88;;;19.10;82.90;;;;;;6155635;23;20033;-94
2023/07/25 03:27:08;;;;;;;14.27;6.20;;;19.10;82.70;;;;;;6179891;23;20045;-94
2023/07/25 03:29:35;;;;;;;12.37;5.43;;;19.10;82.80;;;;;;6180766;23;20040;-94
2023/07/25 03:32:05;;;;;;;10.55;5.13;;;19.10;82.70;;;;;;6155805;23;20021;-94
2023/07/25 03:34:32;;;;;;;10.82;5.38;;;19.10;82.50;;;;;;6156672;23;20022;-95
2023/07/25 03:36:59;;;;;;;9.45;5.28;;;19.10;82.50;;;;;;6156005;23;20025;-95
2023/07/25 03:39:27;;;;;;;10.40;5.55;;;19.10;82.30;;;;;;6180784;23;20069;-94
2023/07/25 03:41:54;;;;;;;9.90;5.13;;;19.10;82.20;;;;;;6180594;23;20028;-94
2023/07/25 03:44:22;;;;;;;10.15;5.60;;;19.10;82.30;;;;;;6180706;23;20026;-94
2023/07/25 03:46:50;;;;;;;13.15;5.90;;;19.10;82.60;;;;;;6180713;23;20022;-94
2023/07/25 03:49:17;;;;;;;10.95;5.65;;;19.10;82.90;;;;;;6156271;23;20025;-94
2023/07/25 03:51:45;;;;;;;13.30;5.72;;;19.00;83.20;;;;;;6155550;23;20028;-94
2023/07/25 03:54:12;;;;;;;12.77;6.70;;;19.00;83.20;;;;;;6180844;23;20448;-95
2023/07/25 03:56:39;;;;;;;13.85;7.60;;;19.10;83.30;;;;;;6181194;23;20029;-94
2023/07/25 03:59:07;;;;;;;13.27;7.68;;;19.10;83.30;;;;;;6181675;23;20029;-93
2023/07/25 04:01:34;;;;;;;15.50;7.28;;;19.10;83.70;;;;;;6181130;23;20052;-95
2023/07/25 04:04:06;;;;;;;17.20;7.60;;;19.10;83.10;;;;;;6181450;23;20444;-94
2023/07/25 04:06:38;;;;;;;13.90;7.17;;;19.20;83.40;;;;;;6180664;23;20017;-95
2023/07/25 04:13:11;;;;;;;16.88;7.93;;;19.40;83.10;;;;;;6157188;23;20108;-94
2023/07/25 04:15:38;;;;;;;15.48;7.60;;;19.50;83.10;;;;;;6181496;23;20104;-94
2023/07/25 04:18:06;;;;;;;17.52;8.93;;;19.60;82.70;;;;;;6157680;23;20029;-95
2023/07/25 04:20:36;;;;;;;19.97;11.03;;;19.60;82.60;;;;;;6158101;23;20018;-94
2023/07/25 04:23:03;;;;;;;23.45;12.13;;;19.70;82.80;;;;;;6158419;23;20344;-95
2023/07/25 04:25:30;;;;;;;21.23;11.57;;;19.70;82.60;;;;;;6157927;23;20057;-95
2023/07/25 04:27:58;;;;;;;20.35;11.55;;;19.70;82.70;;;;;;6157393;23;20344;-94
2023/07/25 04:30:25;;;;;;;22.67;11.45;;;19.70;82.80;;;;;;6157815;23;20029;-94
2023/07/25 04:32:52;;;;;;;15.50;8.90;;;19.80;82.80;;;;;;6133917;23;20053;-94
2023/07/25 04:35:20;;;;;;;14.40;7.72;;;19.80;82.30;;;;;;6158258;23;20017;-94
2023/07/25 04:37:47;;;;;;;12.68;6.13;;;19.90;82.00;;;;;;6157953;23;20451;-94
2023/07/25 04:40:14;;;;;;;12.43;5.88;;;19.80;81.60;;;;;;6158246;23;20044;-95
2023/07/25 04:42:42;;;;;;;12.80;6.30;;;19.90;81.50;;;;;;6157703;23;20025;-95
2023/07/25 04:45:10;;;;;;;10.23;5.20;;;19.90;81.40;;;;;;6157612;23;20021;-94
2023/07/25 04:47:37;;;;;;;9.70;4.88;;;19.90;80.90;;;;;;6182765;23;20032;-95
2023/07/25 04:50:05;;;;;;;10.48;5.18;;;19.90;81.20;;;;;;6132735;23;20021;-93
2023/07/25 04:52:32;;;;;;;9.75;5.13;;;20.00;80.80;;;;;;6157960;23;20025;-94
2023/07/25 04:54:59;;;;;;;11.38;5.50;;;20.00;80.60;;;;;;6157356;23;20017;-95
2023/07/25 04:57:27;;;;;;;13.00;5.63;;;20.10;80.40;;;;;;6157060;23;20041;-94
2023/07/25 04:59:54;;;;;;;10.20;5.28;;;20.10;80.20;;;;;;6157400;23;20017;-94
2023/07/25 05:02:22;;;;;;;9.93;5.20;;;20.10;79.80;;;;;;6157232;23;20025;-96
2023/07/25 05:04:52;;;;;;;9.95;5.43;;;20.10;79.70;;;;;;6157962;23;20453;-94
2023/07/25 05:07:22;;;;;;;11.70;5.95;;;20.10;80.10;;;;;;6182623;23;20021;-95
2023/07/25 05:09:52;;;;;;;10.80;4.40;;;20.10;80.00;;;;;;6158573;23;20025;-95
2023/07/25 05:12:19;;;;;;;10.32;5.45;;;20.20;79.90;;;;;;6158078;23;20446;-96
2023/07/25 05:14:47;;;;;;;10.77;5.25;;;20.30;79.90;;;;;;6133863;23;20030;-95
2023/07/25 05:17:17;;;;;;;10.52;4.78;;;20.40;79.00;;;;;;6186866;23;20021;-95
2023/07/25 05:19:45;;;;;;;10.05;5.22;;;20.50;78.60;;;;;;6189577;23;20092;-95
2023/07/25 05:22:37;;;;;;;10.33;5.37;;;20.60;78.30;;;;;;6164531;23;20017;-95
2023/07/25 05:25:08;;;;;;;12.05;5.50;;;20.70;77.90;;;;;;6189416;23;20076;-95
2023/07/25 05:27:40;;;;;;;10.23;5.35;;;20.90;77.60;;;;;;6163965;23;20017;-96
2023/07/25 05:30:09;;;;;;;12.35;5.82;;;21.10;77.40;;;;;;6163652;23;20025;-95
2023/07/25 05:32:40;;;;;;;15.65;6.78;;;21.10;77.30;;;;;;6162868;23;20440;-95
2023/07/25 05:35:16;;;;;;;12.87;5.93;;;21.10;76.70;;;;;;6163495;23;20017;-95
2023/07/25 05:37:50;;;;;;;10.60;5.32;;;21.20;76.50;;;;;;6163896;23;20458;-95
2023/07/25 05:40:18;;;;;;;12.15;5.80;;;21.30;75.70;;;;;;6162357;23;20028;-94
2023/07/25 05:42:47;;;;;;;9.57;4.72;;;21.50;76.00;;;;;;6162513;23;20108;-95
2023/07/25 05:45:14;;;;;;;9.65;5.20;;;21.60;75.60;;;;;;6163192;23;20021;-94
2023/07/25 05:47:44;;;;;;;10.93;4.93;;;21.70;75.00;;;;;;6162119;23;20020;-95
2023/07/25 05:50:11;;;;;;;9.38;5.22;;;21.80;74.90;;;;;;6162401;23;20029;-95
2023/07/25 05:52:43;;;;;;;10.27;5.53;;;22.00;74.40;;;;;;6162593;23;20364;-95
2023/07/25 05:55:16;;;;;;;10.43;5.18;;;22.10;73.60;;;;;;6163249;23;20017;-94
2023/07/25 05:57:49;;;;;;;11.40;5.70;;;22.30;73.40;;;;;;6162273;23;20025;-95
2023/07/25 06:00:17;;;;;;;10.67;6.20;;;22.40;72.70;;;;;;6162468;23;20312;-94
2023/07/25 06:02:48;;;;;;;13.23;6.90;;;22.40;74.30;;;;;;6186896;23;20029;-94
2023/07/25 06:05:16;;;;;;;12.30;6.30;;;22.50;73.20;;;;;;6161888;23;20021;-93
2023/07/25 06:07:43;;;;;;;9.98;5.60;;;22.50;72.60;;;;;;6162318;23;20453;-95
2023/07/25 06:10:10;;;;;;;19.55;10.70;;;22.60;74.00;;;;;;6161668;23;20024;-93
2023/07/25 06:12:38;;;;;;;18.33;7.67;;;22.60;72.10;;;;;;6162189;23;20021;-94
2023/07/25 06:15:06;;;;;;;10.32;4.90;;;22.70;72.50;;;;;;6188201;23;20503;-94
2023/07/25 06:17:33;;;;;;;10.45;5.13;;;22.90;72.80;;;;;;6167160;23;20506;-94
2023/07/25 06:20:01;;;;;;;10.65;4.30;;;23.10;73.20;;;;;;6167541;23;20446;-94
2023/07/25 06:22:31;;;;;;;13.55;5.15;;;23.10;70.90;;;;;;6191455;23;20020;-95
2023/07/25 06:25:02;;;;;;;12.07;4.50;;;23.20;72.00;;;;;;6167190;23;20020;-91
2023/07/25 06:27:29;;;;;;;12.27;3.85;;;23.30;71.00;;;;;;6191421;23;20412;-91
2023/07/25 06:29:56;;;;;;;8.15;3.65;;;23.30;65.90;;;;;;6166474;23;20063;-93
2023/07/25 06:32:23;;;;;;;11.15;3.60;;;23.50;68.00;;;;;;6166411;23;20469;-91
2023/07/25 06:34:50;;;;;;;10.15;3.13;;;23.60;69.80;;;;;;6166025;23;20027;-91
2023/07/25 06:37:18;;;;;;;8.23;2.97;;;23.60;67.20;;;;;;6166551;23;20103;-90
2023/07/25 06:39:45;;;;;;;7.90;3.05;;;23.60;66.00;;;;;;6166334;23;20067;-91
2023/07/25 06:42:12;;;;;;;8.55;3.47;;;23.70;66.30;;;;;;6166094;23;20099;-90
2023/07/25 06:44:41;;;;;;;8.05;2.65;;;23.90;65.60;;;;;;6190667;23;20021;-92
2023/07/25 06:47:08;;;;;;;6.50;2.53;;;24.10;64.00;;;;;;6166106;23;20027;-92
2023/07/25 06:49:35;;;;;;;7.17;2.50;;;24.10;63.20;;;;;;6166536;23;20439;-93
2023/07/25 06:52:06;;;;;;;9.20;2.70;;;24.00;63.90;;;;;;6165991;23;20058;-93
2023/07/25 06:54:33;;;;;;;7.63;2.20;;;24.00;65.50;;;;;;6167800;23;20040;-93
2023/07/25 06:57:00;;;;;;;6.85;2.45;;;23.90;63.10;;;;;;6166618;23;20020;-92
2023/07/25 06:59:32;;;;;;;6.78;2.40;;;24.00;62.50;;;;;;6165927;23;20497;-95
2023/07/25 07:02:13;;;;;;;6.80;2.10;;;23.90;61.90;;;;;;6168224;23;20075;-93
2023/07/25 07:04:40;;;;;;;6.63;2.15;;;23.90;62.70;;;;;;6166528;23;20021;-94
2023/07/25 07:07:08;;;;;;;7.63;2.42;;;24.00;62.70;;;;;;6168342;23;20028;-94
2023/07/25 07:09:35;;;;;;;6.63;2.60;;;24.00;61.40;;;;;;6192252;23;20435;-94
2023/07/25 07:12:03;;;;;;;5.70;2.13;;;24.00;62.00;;;;;;6166953;23;20016;-93
2023/07/25 07:14:30;;;;;;;7.90;2.17;;;24.00;61.50;;;;;;6166638;23;20447;-94
2023/07/25 07:16:57;;;;;;;6.60;1.80;;;24.10;64.20;;;;;;6190736;23;20020;-94
2023/07/25 07:19:24;;;;;;;5.82;2.10;;;24.10;64.60;;;;;;6165973;23;20071;-95
2023/07/25 07:21:51;;;;;;;7.35;2.33;;;24.10;64.70;;;;;;6166737;23;20020;-94
2023/07/25 07:24:19;;;;;;;8.73;2.58;;;24.10;63.70;;;;;;6166553;23;20020;-94
2023/07/25 07:26:46;;;;;;;6.20;2.30;;;24.10;63.20;;;;;;6167084;23;20024;-94
2023/07/25 07:29:16;;;;;;;6.80;2.20;;;24.30;61.50;;;;;;6167066;23;20051;-93
2023/07/25 07:31:43;;;;;;;7.72;2.40;;;24.50;60.20;;;;;;6166650;23;20020;-95
2023/07/25 07:34:17;;;;;;;6.53;2.30;;;24.50;59.70;;;;;;6166926;23;20020;-95
2023/07/25 07:36:45;;;;;;;6.68;2.75;;;24.60;60.40;;;;;;6166883;23;20019;-95
2023/07/25 07:39:12;;;;;;;7.07;2.53;;;24.60;59.30;;;;;;6167011;23;20017;-95
2023/07/25 07:41:39;;;;;;;7.22;2.53;;;24.60;61.10;;;;;;6166683;23;20013;-94
2023/07/25 07:44:07;;;;;;;6.47;2.30;;;24.60;61.90;;;;;;6170495;23;20016;-94
2023/07/25 07:46:35;;;;;;;6.00;2.08;;;24.60;58.90;;;;;;6197970;23;20136;-93
2023/07/25 07:49:02;;;;;;;6.97;2.25;;;24.60;58.50;;;;;;6167289;23;20027;-95
2023/07/25 07:51:30;;;;;;;7.03;2.80;;;24.60;60.60;;;;;;6167927;23;20021;-96
2023/07/25 07:53:59;;;;;;;7.57;2.88;;;24.50;60.20;;;;;;6169126;23;20017;-95
2023/07/25 07:56:26;;;;;;;8.93;2.90;;;24.50;59.80;;;;;;6168836;23;20435;-95
2023/07/25 07:58:54;;;;;;;7.35;2.60;;;24.60;59.80;;;;;;6168200;23;20022;-95
2023/07/25 08:01:22;;;;;;;6.43;2.50;;;24.80;60.40;;;;;;6169026;23;20016;-96
2023/07/25 08:03:49;;;;;;;6.43;2.30;;;24.90;57.10;;;;;;6176588;23;20021;-95
2023/07/25 08:06:18;;;;;;;6.57;2.53;;;25.00;57.80;;;;;;6197923;23;20354;-96
2023/07/25 08:08:51;;;;;;;5.78;2.10;;;25.00;57.90;;;;;;6172473;23;20013;-96
2023/07/25 08:11:18;;;;;;;5.60;2.00;;;25.00;58.50;;;;;;6172479;23;20067;-91
2023/07/25 08:13:45;;;;;;;6.13;2.35;;;25.10;57.40;;;;;;6169904;23;20504;-92
2023/07/25 08:16:12;;;;;;;6.07;2.43;;;25.00;58.10;;;;;;6169312;23;20063;-96
2023/07/25 08:18:43;;;;;;;6.20;2.25;;;25.00;57.70;;;;;;6193595;23;20390;-91
2023/07/25 08:21:10;;;;;;;5.80;2.10;;;25.10;58.30;;;;;;6167565;23;20019;-94
2023/07/25 08:23:41;;;;;;;6.47;1.80;;;25.30;57.50;;;;;;6167976;23;20074;-95
2023/07/25 08:26:08;;;;;;;6.10;2.20;;;25.50;57.90;;;;;;6172653;23;20056;-96
2023/07/25 08:28:38;;;;;;;6.93;2.10;;;25.70;56.60;;;;;;6172871;23;20026;-94
2023/07/25 08:31:06;;;;;;;6.00;2.03;;;25.70;55.80;;;;;;6168069;23;20048;-93
2023/07/25 08:33:36;;;;;;;5.70;2.00;;;25.80;56.00;;;;;;6169744;23;20025;-92
2023/07/25 08:36:04;;;;;;;7.18;2.60;;;25.80;55.30;;;;;;6169588;23;20024;-90
2023/07/25 08:38:31;;;;;;;7.80;2.58;;;25.70;56.60;;;;;;6196066;23;20021;-93
2023/07/25 08:41:08;;;;;;;7.00;2.40;;;25.70;56.80;;;;;;6168578;23;20017;-92
2023/07/25 08:43:40;;;;;;;7.47;2.50;;;25.60;55.60;;;;;;6168062;23;20020;-94
2023/07/25 08:46:09;;;;;;;6.80;2.13;;;25.60;56.30;;;;;;6168999;23;20024;-93
2023/07/25 08:48:41;;;;;;;6.45;2.20;;;25.50;56.50;;;;;;6168157;23;20431;-95
2023/07/25 08:51:22;;;;;;;7.38;2.50;;;25.60;56.10;;;;;;6167424;23;20027;-95
2023/07/25 08:54:19;;;;;;;6.70;2.40;;;25.60;57.40;;;;;;6167883;23;20020;-94
2023/07/25 08:56:48;;;;;;;7.10;2.70;;;25.90;57.20;;;;;;6168672;23;20450;-94
2023/07/25 08:59:17;;;;;;;6.78;2.88;;;26.10;56.90;;;;;;6170501;23;20032;-94
2023/07/25 09:01:45;;;;;;;7.32;2.65;;;26.10;57.00;;;;;;6173115;23;20116;-91
2023/07/25 09:04:16;;;;;;;7.32;2.72;;;26.10;55.90;;;;;;6175663;23;20055;-94
2023/07/25 09:06:47;;;;;;;6.97;2.67;;;26.10;54.80;;;;;;6184742;23;20068;-95
2023/07/25 09:09:15;;;;;;;10.02;2.50;;;26.00;54.60;;;;;;6186587;23;20031;-95
2023/07/25 09:11:45;;;;;;;7.82;2.60;;;25.90;54.80;;;;;;6208634;23;20028;-95
2023/07/25 09:14:13;;;;;;;6.70;2.20;;;25.80;55.50;;;;;;6182994;23;20024;-95
2023/07/25 09:16:41;;;;;;;8.48;2.92;;;25.60;55.00;;;;;;6183469;23;20225;-96
2023/07/25 09:19:13;;;;;;;6.93;2.30;;;25.60;55.50;;;;;;6209189;23;20111;-95
2023/07/25 09:21:56;;;;;;;6.18;2.45;;;25.80;55.30;;;;;;6184798;23;20103;-95
2023/07/25 09:24:38;;;;;;;6.95;2.60;;;25.90;56.10;;;;;;6183668;23;20016;-95
2023/07/25 09:27:16;;;;;;;8.45;2.45;;;25.90;53.40;;;;;;6184648;23;20021;-95
2023/07/25 09:29:51;;;;;;;6.75;2.25;;;26.00;53.30;;;;;;6184162;23;20022;-96
2023/07/25 09:32:25;;;;;;;7.13;2.40;;;26.00;53.60;;;;;;6184432;23;20020;-96
2023/07/25 09:35:06;;;;;;;5.97;2.13;;;26.00;55.10;;;;;;6184751;23;20020;-96
2023/07/25 09:37:38;;;;;;;6.72;2.35;;;25.90;53.90;;;;;;6211436;23;20016;-96
2023/07/25 09:40:12;;;;;;;7.25;2.33;;;25.80;54.10;;;;;;6211603;23;20043;-96
2023/07/25 09:42:41;;;;;;;6.55;2.05;;;25.70;54.80;;;;;;6211098;23;20107;-96
2023/07/25 09:45:13;;;;;;;7.03;2.57;;;25.60;53.00;;;;;;6183432;23;20040;-96
2023/07/25 09:47:40;;;;;;;6.88;2.60;;;25.70;53.70;;;;;;6184502;23;20048;-96
2023/07/25 09:50:09;;;;;;;7.00;2.55;;;25.60;53.50;;;;;;6184609;23;20044;-95
2023/07/25 09:52:42;;;;;;;7.43;2.35;;;25.60;55.30;;;;;;6180904;23;20021;-96
2023/07/25 09:55:11;;;;;;;6.22;2.40;;;25.60;54.50;;;;;;6182745;23;20028;-96
2023/07/25 09:57:41;;;;;;;8.30;2.40;;;25.40;55.30;;;;;;6183368;23;20024;-95
2023/07/25 10:00:12;;;;;;;6.60;2.60;;;25.40;55.00;;;;;;6181219;23;20466;-95
2023/07/25 10:02:40;;;;;;;7.22;2.67;;;25.30;54.90;;;;;;6181010;23;20032;-95
2023/07/25 10:05:08;;;;;;;8.23;2.90;;;25.30;56.00;;;;;;6179393;23;20077;-96
2023/07/25 10:07:38;;;;;;;7.03;2.50;;;25.40;56.50;;;;;;6179123;23;20028;-95
2023/07/25 10:10:07;;;;;;;6.20;2.40;;;25.40;55.70;;;;;;6182178;23;20024;-95
2023/07/25 10:12:35;;;;;;;7.75;2.50;;;25.30;55.20;;;;;;6203926;23;20347;-95
2023/07/25 10:15:04;;;;;;;8.80;2.53;;;25.30;56.60;;;;;;6179236;23;20013;-96
2023/07/25 10:17:32;;;;;;;5.75;2.05;;;25.30;58.10;;;;;;6182399;23;20017;-95
2023/07/25 10:20:05;;;;;;;6.70;2.58;;;25.30;57.10;;;;;;6183311;23;20055;-95
2023/07/25 10:22:40;;;;;;;5.77;2.43;;;25.30;56.30;;;;;;6181430;23;20089;-95
2023/07/25 10:25:17;;;;;;;6.97;2.33;;;25.20;57.00;;;;;;6180372;23;20451;-94
2023/07/25 10:27:44;;;;;;;7.05;2.40;;;25.10;56.20;;;;;;6175366;23;20020;-94
2023/07/25 10:30:33;;;;;;;6.38;2.00;;;25.10;56.50;;;;;;6176567;23;20347;-96
2023/07/25 10:33:06;;;;;;;7.30;2.38;;;25.00;58.40;;;;;;6200032;23;20359;-95
2023/07/25 10:35:52;;;;;;;5.47;1.93;;;25.10;58.20;;;;;;6173356;23;20023;-94
2023/07/25 10:38:22;;;;;;;6.65;2.30;;;25.00;59.90;;;;;;6173514;23;20016;-95
2023/07/25 10:40:57;;;;;;;6.75;2.70;;;25.00;60.30;;;;;;6171361;23;20473;-95
2023/07/25 10:43:48;;;;;;;5.68;2.28;;;25.10;60.70;;;;;;6195545;23;20527;-95
2023/07/25 10:46:20;;;;;;;6.45;2.40;;;25.00;60.70;;;;;;6171142;23;20016;-95
2023/07/25 10:48:50;;;;;;;9.40;2.37;;;24.90;60.70;;;;;;6171328;23;20070;-96
2023/07/25 10:51:19;;;;;;;8.30;2.65;;;24.90;60.80;;;;;;6172863;23;20107;-96
2023/07/25 10:54:09;;;;;;;9.15;2.70;;;24.90;61.50;;;;;;6170837;23;20027;-95
2023/07/25 10:56:40;;;;;;;7.88;2.90;;;24.80;62.70;;;;;;6168025;23;20386;-96
2023/07/25 10:59:11;;;;;;;7.10;2.50;;;24.90;63.30;;;;;;6166518;23;20020;-96
2023/07/25 11:01:43;;;;;;;7.50;2.70;;;24.90;65.40;;;;;;6167562;23;20013;-96
2023/07/25 11:04:30;;;;;;;7.15;2.55;;;24.90;65.00;;;;;;6166691;23;20048;-95
2023/07/25 11:07:13;;;;;;;7.32;2.90;;;24.80;68.10;;;;;;6166891;23;20021;-94
2023/07/25 11:09:42;;;;;;;8.90;2.70;;;24.70;69.90;;;;;;6166302;23;20025;-95
2023/07/25 11:12:10;;;;;;;7.65;3.03;;;24.60;70.00;;;;;;6166310;23;20027;-94
2023/07/25 11:14:44;;;;;;;8.80;3.10;;;24.30;68.90;;;;;;6166790;23;20474;-94
2023/07/25 11:17:12;;;;;;;10.48;3.17;;;24.00;70.50;;;;;;6162737;23;20025;-93
2023/07/25 11:19:40;;;;;;;9.02;3.47;;;23.60;71.70;;;;;;6165097;23;20013;-93
2023/07/25 11:22:09;;;;;;;11.80;3.75;;;23.40;72.40;;;;;;6162910;23;20104;-92
2023/07/25 11:24:44;;;;;;;8.32;3.35;;;23.10;72.80;;;;;;6160908;23;20037;-92
2023/07/25 11:27:12;;;;;;;8.63;3.97;;;22.90;74.10;;;;;;6185578;23;20021;-94
2023/07/25 11:29:40;;;;;;;9.65;4.20;;;22.80;74.80;;;;;;6162959;23;20021;-91
2023/07/25 11:32:08;;;;;;;7.55;3.30;;;22.80;74.80;;;;;;6161086;23;20021;-91
2023/07/25 11:34:35;;;;;;;9.93;3.58;;;22.90;75.10;;;;;;6160949;23;20055;-90
2023/07/25 11:37:09;;;;;;;12.63;4.40;;;22.90;75.00;;;;;;6161015;23;20017;-91
2023/07/25 11:39:36;;;;;;;7.60;2.67;;;22.90;75.00;;;;;;6161128;23;20442;-92
2023/07/25 11:42:06;;;;;;;6.03;2.13;;;22.60;74.60;;;;;;6160975;23;20028;-90
2023/07/25 11:44:33;;;;;;;6.65;2.35;;;22.20;75.30;;;;;;6160748;23;20044;-89
2023/07/25 11:47:00;;;;;;;7.88;2.40;;;22.10;75.70;;;;;;6160174;23;20021;-88
2023/07/25 11:49:28;;;;;;;7.70;2.42;;;22.00;74.50;;;;;;6160667;23;20104;-90
2023/07/25 11:52:14;;;;;;;9.07;2.80;;;21.80;75.50;;;;;;6164977;23;20113;-92
2023/07/25 11:54:41;;;;;;;7.68;2.90;;;21.60;75.30;;;;;;6161357;23;20048;-91
2023/07/25 11:57:09;;;;;;;7.97;3.60;;;21.60;75.90;;;;;;6161154;23;20024;-94
2023/07/25 11:59:41;;;;;;;8.50;3.63;;;21.50;76.70;;;;;;6161476;23;20351;-93
2023/07/25 12:02:09;;;;;;;10.52;3.90;;;21.60;76.90;;;;;;6161204;23;20040;-92
2023/07/25 12:04:44;;;;;;;11.70;3.73;;;21.50;76.20;;;;;;6185809;23;20021;-90
2023/07/25 12:07:15;;;;;;;9.48;3.80;;;21.30;76.40;;;;;;6160711;23;20052;-89
2023/07/25 12:09:50;;;;;;;9.45;3.40;;;21.10;77.30;;;;;;6160575;23;20045;-91
2023/07/25 12:12:17;;;;;;;7.95;2.88;;;21.10;77.50;;;;;;6185023;23;20021;-90
2023/07/25 12:15:00;;;;;;;8.05;2.53;;;21.00;77.10;;;;;;6160551;23;20482;-90
2023/07/25 12:17:43;;;;;;;7.63;2.20;;;20.90;77.20;;;;;;6160729;23;20028;-92
2023/07/25 12:20:19;;;;;;;9.75;2.45;;;20.90;77.30;;;;;;6160573;23;20438;-91
2023/07/25 12:22:47;;;;;;;5.93;2.28;;;21.00;76.50;;;;;;6161210;23;20051;-92
2023/07/25 12:25:18;;;;;;;7.50;2.55;;;21.10;76.20;;;;;;6161269;23;20342;-91
2023/07/25 12:27:46;;;;;;;7.43;2.85;;;21.20;76.30;;;;;;6160851;23;20017;-90
2023/07/25 12:30:14;;;;;;;7.13;2.60;;;21.30;76.40;;;;;;6185586;23;20440;-90
2023/07/25 12:32:41;;;;;;;8.45;2.60;;;21.30;76.70;;;;;;6159894;23;20017;-90
2023/07/25 12:35:10;;;;;;;8.60;3.17;;;21.30;76.30;;;;;;6160324;23;20021;-89
2023/07/25 12:37:38;;;;;;;7.53;2.83;;;21.20;76.20;;;;;;6161175;23;20067;-90
2023/07/25 12:40:05;;;;;;;8.43;2.90;;;21.20;76.80;;;;;;6186954;23;20023;-90
2023/07/25 12:42:32;;;;;;;8.10;2.67;;;21.10;77.00;;;;;;6162145;23;20017;-89
2023/07/25 12:45:05;;;;;;;7.15;2.83;;;21.10;77.90;;;;;;6161909;23;20443;-89
2023/07/25 12:47:36;;;;;;;7.75;3.50;;;21.10;78.70;;;;;;6162766;23;20017;-89
2023/07/25 12:50:35;;;;;;;7.57;3.08;;;21.10;78.00;;;;;;6162376;23;20021;-90
2023/07/25 12:53:04;;;;;;;8.20;2.63;;;21.20;77.80;;;;;;6162543;23;20021;-92
2023/07/25 12:55:31;;;;;;;8.23;3.40;;;21.20;77.70;;;;;;6162336;23;20025;-92
2023/07/25 12:58:04;;;;;;;8.30;3.63;;;21.30;77.70;;;;;;6164158;23;20414;-92